Weather at Nepalgunj Airport

Public forecast

Using degrees Celsius for public forecast. Weather courtesy of forecast.io.

Closest aviation weather report (METAR) to Nepalgunj Airport

Closest report is Chaudhary Charan Singh International Airport, 90.7 nm (167.9 km) SSW.

2024/05/20 05:30 (retrieved 22 minutes ago)

VILK 200530Z 13003KT 5000 HZ NSC 37/22 Q1003 NOSIG

Closest aviation forecast (TAF) to Nepalgunj Airport

Forecast is more than 12 hours old.

Closest forecast is Bareilly Air Force Station, 118.7 nm (219.9 km) W.

2024/05/19 12:00 (retrieved 18 hours ago)

TAF VIBY 190930Z 1912/1924 20008KT 6000 NSC BECMG 1922/1924 5000 HZ FEW080 TEMPO FEW030TCU/CB